Villach, Austria
Current Conditions -  °F | °C
As of 5:50 PM on Friday 28 Nov 2014 (Local Time) from LOWK Reporting Station
Broken Clouds Broken Clouds  
Wind Chill: 43°   Ceiling: 1100
Heat Index: 43°   Visibility: 5mi
Dew Point: 39°   Wind: 2mph
Humidity: 87%   Direction: NA
Pressure: 30"   Gusts: NA
Location:  46.62°N, 13.85°E
Report Text: LOWK 281550Z VRB02KT 8000 FEW009 BKN011 06/04 Q1016 NOSIG
Loading
Personal Weather Stations






























Interactive Weather Map New forecast layout! Learn more

10-Day Weather Forecast

Advertisements
Track Severe Weather on mobile